sensor_id;sensor_type;location;lat;lon;timestamp;temperature;humidity
20066;DHT22;10193;48.884;9.182;2022-09-21T00:01:11;11.10;83.10
20066;DHT22;10193;48.884;9.182;2022-09-21T00:03:40;11.10;83.10
20066;DHT22;10193;48.884;9.182;2022-09-21T00:06:09;11.10;83.20
20066;DHT22;10193;48.884;9.182;2022-09-21T00:08:37;11.00;83.20
20066;DHT22;10193;48.884;9.182;2022-09-21T00:11:04;11.00;83.40
20066;DHT22;10193;48.884;9.182;2022-09-21T00:13:32;11.00;83.60
20066;DHT22;10193;48.884;9.182;2022-09-21T00:16:04;11.00;83.60
20066;DHT22;10193;48.884;9.182;2022-09-21T00:18:31;10.90;83.40
20066;DHT22;10193;48.884;9.182;2022-09-21T00:20:59;10.90;83.60
20066;DHT22;10193;48.884;9.182;2022-09-21T00:23:26;10.90;83.70
20066;DHT22;10193;48.884;9.182;2022-09-21T00:26:03;10.90;83.70
20066;DHT22;10193;48.884;9.182;2022-09-21T00:28:30;10.90;83.20
20066;DHT22;10193;48.884;9.182;2022-09-21T00:31:00;10.80;83.40
20066;DHT22;10193;48.884;9.182;2022-09-21T00:33:27;10.80;83.20
20066;DHT22;10193;48.884;9.182;2022-09-21T00:35:53;10.80;83.40
20066;DHT22;10193;48.884;9.182;2022-09-21T00:38:21;10.80;83.30
20066;DHT22;10193;48.884;9.182;2022-09-21T00:40:48;10.70;83.20
20066;DHT22;10193;48.884;9.182;2022-09-21T00:43:16;10.70;83.40
20066;DHT22;10193;48.884;9.182;2022-09-21T00:45:43;10.60;83.40
20066;DHT22;10193;48.884;9.182;2022-09-21T00:48:12;10.60;83.60
20066;DHT22;10193;48.884;9.182;2022-09-21T00:50:44;10.60;83.70
20066;DHT22;10193;48.884;9.182;2022-09-21T00:53:12;10.50;84.30
20066;DHT22;10193;48.884;9.182;2022-09-21T00:55:45;10.50;83.80
20066;DHT22;10193;48.884;9.182;2022-09-21T00:58:17;10.50;83.70
20066;DHT22;10193;48.884;9.182;2022-09-21T01:00:45;10.40;83.80
20066;DHT22;10193;48.884;9.182;2022-09-21T01:03:12;10.40;83.80
20066;DHT22;10193;48.884;9.182;2022-09-21T01:05:39;10.50;83.90
20066;DHT22;10193;48.884;9.182;2022-09-21T01:08:06;10.40;83.90
20066;DHT22;10193;48.884;9.182;2022-09-21T01:10:45;10.40;84.00
20066;DHT22;10193;48.884;9.182;2022-09-21T01:13:22;10.30;83.80
20066;DHT22;10193;48.884;9.182;2022-09-21T01:15:59;10.30;84.60
20066;DHT22;10193;48.884;9.182;2022-09-21T01:18:34;10.30;83.90
20066;DHT22;10193;48.884;9.182;2022-09-21T01:21:16;10.30;83.90
20066;DHT22;10193;48.884;9.182;2022-09-21T01:24:12;10.30;83.80
20066;DHT22;10193;48.884;9.182;2022-09-21T01:26:58;10.20;83.70
20066;DHT22;10193;48.884;9.182;2022-09-21T01:29:32;10.20;84.00
20066;DHT22;10193;48.884;9.182;2022-09-21T01:32:05;10.20;84.40
20066;DHT22;10193;48.884;9.182;2022-09-21T01:34:35;10.20;84.50
20066;DHT22;10193;48.884;9.182;2022-09-21T01:37:07;10.20;84.60
20066;DHT22;10193;48.884;9.182;2022-09-21T01:39:36;10.20;84.60
20066;DHT22;10193;48.884;9.182;2022-09-21T01:42:06;10.20;84.80
20066;DHT22;10193;48.884;9.182;2022-09-21T01:44:37;10.20;84.80
20066;DHT22;10193;48.884;9.182;2022-09-21T01:47:07;10.20;84.60
20066;DHT22;10193;48.884;9.182;2022-09-21T01:49:37;10.20;84.80
20066;DHT22;10193;48.884;9.182;2022-09-21T01:52:08;10.20;84.90
20066;DHT22;10193;48.884;9.182;2022-09-21T01:54:40;10.10;84.60
20066;DHT22;10193;48.884;9.182;2022-09-21T01:57:12;10.10;84.60
20066;DHT22;10193;48.884;9.182;2022-09-21T01:59:46;10.10;84.60
20066;DHT22;10193;48.884;9.182;2022-09-21T02:02:20;10.10;84.20
20066;DHT22;10193;48.884;9.182;2022-09-21T02:04:49;10.00;83.50
20066;DHT22;10193;48.884;9.182;2022-09-21T02:07:16;10.00;83.30
20066;DHT22;10193;48.884;9.182;2022-09-21T02:09:44;10.00;83.40
20066;DHT22;10193;48.884;9.182;2022-09-21T02:12:12;10.00;83.70
20066;DHT22;10193;48.884;9.182;2022-09-21T02:14:39;9.90;84.90
20066;DHT22;10193;48.884;9.182;2022-09-21T02:17:16;9.90;85.10
20066;DHT22;10193;48.884;9.182;2022-09-21T02:19:49;9.80;84.90
20066;DHT22;10193;48.884;9.182;2022-09-21T02:22:27;9.80;85.20
20066;DHT22;10193;48.884;9.182;2022-09-21T02:25:04;9.80;85.20
20066;DHT22;10193;48.884;9.182;2022-09-21T02:27:36;9.80;85.10
20066;DHT22;10193;48.884;9.182;2022-09-21T02:30:06;9.80;85.10
20066;DHT22;10193;48.884;9.182;2022-09-21T02:32:39;9.70;84.70
20066;DHT22;10193;48.884;9.182;2022-09-21T02:35:23;9.70;84.60
20066;DHT22;10193;48.884;9.182;2022-09-21T02:38:03;9.60;84.50
20066;DHT22;10193;48.884;9.182;2022-09-21T02:40:35;9.60;84.80
20066;DHT22;10193;48.884;9.182;2022-09-21T02:43:08;9.60;85.10
20066;DHT22;10193;48.884;9.182;2022-09-21T02:45:40;9.60;85.50
20066;DHT22;10193;48.884;9.182;2022-09-21T02:48:13;9.50;85.40
20066;DHT22;10193;48.884;9.182;2022-09-21T02:50:45;9.50;86.20
20066;DHT22;10193;48.884;9.182;2022-09-21T02:53:16;9.50;85.40
20066;DHT22;10193;48.884;9.182;2022-09-21T02:55:45;9.50;85.70
20066;DHT22;10193;48.884;9.182;2022-09-21T02:58:16;9.50;85.90
20066;DHT22;10193;48.884;9.182;2022-09-21T03:00:43;9.50;85.80
20066;DHT22;10193;48.884;9.182;2022-09-21T03:03:16;9.50;85.60
20066;DHT22;10193;48.884;9.182;2022-09-21T03:05:44;9.40;85.40
20066;DHT22;10193;48.884;9.182;2022-09-21T03:08:11;9.40;85.70
20066;DHT22;10193;48.884;9.182;2022-09-21T03:10:38;9.40;85.80
20066;DHT22;10193;48.884;9.182;2022-09-21T03:13:05;9.40;85.90
20066;DHT22;10193;48.884;9.182;2022-09-21T03:15:33;9.40;85.90
20066;DHT22;10193;48.884;9.182;2022-09-21T03:18:00;9.40;85.90
20066;DHT22;10193;48.884;9.182;2022-09-21T03:20:29;9.40;86.00
20066;DHT22;10193;48.884;9.182;2022-09-21T03:22:56;9.40;86.00
20066;DHT22;10193;48.884;9.182;2022-09-21T03:25:23;9.40;86.10
20066;DHT22;10193;48.884;9.182;2022-09-21T03:27:51;9.40;86.20
20066;DHT22;10193;48.884;9.182;2022-09-21T03:30:18;9.30;86.20
20066;DHT22;10193;48.884;9.182;2022-09-21T03:32:45;9.30;86.30
20066;DHT22;10193;48.884;9.182;2022-09-21T03:35:13;9.30;86.30
20066;DHT22;10193;48.884;9.182;2022-09-21T03:37:42;9.30;86.40
20066;DHT22;10193;48.884;9.182;2022-09-21T03:40:09;9.40;86.50
20066;DHT22;10193;48.884;9.182;2022-09-21T03:42:37;9.30;86.50
20066;DHT22;10193;48.884;9.182;2022-09-21T03:45:04;9.30;86.50
20066;DHT22;10193;48.884;9.182;2022-09-21T03:47:31;9.30;86.60
20066;DHT22;10193;48.884;9.182;2022-09-21T03:49:58;9.30;86.60
20066;DHT22;10193;48.884;9.182;2022-09-21T03:52:25;9.30;86.80
20066;DHT22;10193;48.884;9.182;2022-09-21T03:54:53;9.20;86.60
20066;DHT22;10193;48.884;9.182;2022-09-21T03:57:20;9.20;86.50
20066;DHT22;10193;48.884;9.182;2022-09-21T03:59:47;9.20;86.50
20066;DHT22;10193;48.884;9.182;2022-09-21T04:02:13;9.20;86.50
20066;DHT22;10193;48.884;9.182;2022-09-21T04:04:40;9.20;86.40
20066;DHT22;10193;48.884;9.182;2022-09-21T04:07:07;9.20;86.20
20066;DHT22;10193;48.884;9.182;2022-09-21T04:09:34;9.20;85.90
20066;DHT22;10193;48.884;9.182;2022-09-21T04:12:02;9.10;85.40
20066;DHT22;10193;48.884;9.182;2022-09-21T04:14:29;9.10;85.00
20066;DHT22;10193;48.884;9.182;2022-09-21T04:16:55;9.10;85.00
20066;DHT22;10193;48.884;9.182;2022-09-21T04:19:22;9.00;85.00
20066;DHT22;10193;48.884;9.182;2022-09-21T04:21:49;9.00;85.00
20066;DHT22;10193;48.884;9.182;2022-09-21T04:24:17;9.00;84.90
20066;DHT22;10193;48.884;9.182;2022-09-21T04:26:44;8.90;84.80
20066;DHT22;10193;48.884;9.182;2022-09-21T04:29:14;8.90;84.80
20066;DHT22;10193;48.884;9.182;2022-09-21T04:31:41;8.90;84.90
20066;DHT22;10193;48.884;9.182;2022-09-21T04:34:10;8.90;85.00
20066;DHT22;10193;48.884;9.182;2022-09-21T04:36:37;8.80;84.90
20066;DHT22;10193;48.884;9.182;2022-09-21T04:39:04;8.80;85.00
20066;DHT22;10193;48.884;9.182;2022-09-21T04:41:31;8.80;85.30
20066;DHT22;10193;48.884;9.182;2022-09-21T04:43:58;8.70;85.50
20066;DHT22;10193;48.884;9.182;2022-09-21T04:46:27;8.70;85.90
20066;DHT22;10193;48.884;9.182;2022-09-21T04:48:53;8.70;86.00
20066;DHT22;10193;48.884;9.182;2022-09-21T04:51:20;8.70;86.40
20066;DHT22;10193;48.884;9.182;2022-09-21T04:53:47;8.70;86.60
20066;DHT22;10193;48.884;9.182;2022-09-21T04:56:14;8.70;86.60
20066;DHT22;10193;48.884;9.182;2022-09-21T04:58:41;8.70;86.80
20066;DHT22;10193;48.884;9.182;2022-09-21T05:01:08;8.70;86.80
20066;DHT22;10193;48.884;9.182;2022-09-21T05:03:37;8.70;87.60
20066;DHT22;10193;48.884;9.182;2022-09-21T05:06:04;8.70;86.80
20066;DHT22;10193;48.884;9.182;2022-09-21T05:08:32;8.70;86.80
20066;DHT22;10193;48.884;9.182;2022-09-21T05:11:17;8.70;86.90
20066;DHT22;10193;48.884;9.182;2022-09-21T05:13:45;8.60;86.80
20066;DHT22;10193;48.884;9.182;2022-09-21T05:16:12;8.60;86.60
20066;DHT22;10193;48.884;9.182;2022-09-21T05:18:40;8.60;87.50
20066;DHT22;10193;48.884;9.182;2022-09-21T05:21:08;8.60;87.50
20066;DHT22;10193;48.884;9.182;2022-09-21T05:23:35;8.60;86.90
20066;DHT22;10193;48.884;9.182;2022-09-21T05:26:01;8.60;86.90
20066;DHT22;10193;48.884;9.182;2022-09-21T05:28:29;8.60;86.90
20066;DHT22;10193;48.884;9.182;2022-09-21T05:30:59;8.60;87.00
20066;DHT22;10193;48.884;9.182;2022-09-21T05:33:28;8.60;87.20
20066;DHT22;10193;48.884;9.182;2022-09-21T05:36:04;8.60;87.60
20066;DHT22;10193;48.884;9.182;2022-09-21T05:38:36;8.60;87.60
20066;DHT22;10193;48.884;9.182;2022-09-21T05:41:03;8.60;88.40
20066;DHT22;10193;48.884;9.182;2022-09-21T05:43:31;8.70;89.90
20066;DHT22;10193;48.884;9.182;2022-09-21T05:46:02;8.80;90.40
20066;DHT22;10193;48.884;9.182;2022-09-21T05:48:36;8.90;91.00
20066;DHT22;10193;48.884;9.182;2022-09-21T05:51:14;9.10;91.40
20066;DHT22;10193;48.884;9.182;2022-09-21T05:53:51;9.30;91.70
20066;DHT22;10193;48.884;9.182;2022-09-21T05:56:32;9.50;91.90
20066;DHT22;10193;48.884;9.182;2022-09-21T05:59:08;9.80;91.90
20066;DHT22;10193;48.884;9.182;2022-09-21T06:01:49;10.10;91.70
20066;DHT22;10193;48.884;9.182;2022-09-21T06:04:18;10.30;92.10
20066;DHT22;10193;48.884;9.182;2022-09-21T06:06:46;10.60;92.80
20066;DHT22;10193;48.884;9.182;2022-09-21T06:09:12;10.90;93.00
20066;DHT22;10193;48.884;9.182;2022-09-21T06:11:39;11.30;93.40
20066;DHT22;10193;48.884;9.182;2022-09-21T06:14:06;11.60;93.40
20066;DHT22;10193;48.884;9.182;2022-09-21T06:16:37;12.00;93.30
20066;DHT22;10193;48.884;9.182;2022-09-21T06:19:04;12.30;92.70
20066;DHT22;10193;48.884;9.182;2022-09-21T06:21:30;12.60;92.70
20066;DHT22;10193;48.884;9.182;2022-09-21T06:23:59;12.90;92.20
20066;DHT22;10193;48.884;9.182;2022-09-21T06:26:26;13.10;91.50
20066;DHT22;10193;48.884;9.182;2022-09-21T06:28:53;13.40;91.00
20066;DHT22;10193;48.884;9.182;2022-09-21T06:31:20;13.50;90.60
20066;DHT22;10193;48.884;9.182;2022-09-21T06:33:47;13.60;90.20
20066;DHT22;10193;48.884;9.182;2022-09-21T06:36:14;13.70;88.90
20066;DHT22;10193;48.884;9.182;2022-09-21T06:38:41;13.80;88.20
20066;DHT22;10193;48.884;9.182;2022-09-21T06:41:09;13.80;87.00
20066;DHT22;10193;48.884;9.182;2022-09-21T06:43:36;13.80;86.00
20066;DHT22;10193;48.884;9.182;2022-09-21T06:46:03;13.80;85.80
20066;DHT22;10193;48.884;9.182;2022-09-21T06:48:32;13.70;85.30
20066;DHT22;10193;48.884;9.182;2022-09-21T06:51:01;13.70;84.80
20066;DHT22;10193;48.884;9.182;2022-09-21T06:53:29;13.60;84.70
20066;DHT22;10193;48.884;9.182;2022-09-21T06:56:00;13.50;84.50
20066;DHT22;10193;48.884;9.182;2022-09-21T06:58:28;13.40;83.60
20066;DHT22;10193;48.884;9.182;2022-09-21T07:00:55;13.30;84.00
20066;DHT22;10193;48.884;9.182;2022-09-21T07:03:22;13.30;84.30
20066;DHT22;10193;48.884;9.182;2022-09-21T07:05:49;13.10;84.30
20066;DHT22;10193;48.884;9.182;2022-09-21T07:08:16;13.10;84.60
20066;DHT22;10193;48.884;9.182;2022-09-21T07:10:43;12.90;84.70
20066;DHT22;10193;48.884;9.182;2022-09-21T07:13:10;12.90;85.20
20066;DHT22;10193;48.884;9.182;2022-09-21T07:15:38;12.80;85.60
20066;DHT22;10193;48.884;9.182;2022-09-21T07:18:10;12.70;85.80
20066;DHT22;10193;48.884;9.182;2022-09-21T07:20:36;12.60;85.40
20066;DHT22;10193;48.884;9.182;2022-09-21T07:23:09;12.60;86.40
20066;DHT22;10193;48.884;9.182;2022-09-21T07:25:36;12.50;86.20
20066;DHT22;10193;48.884;9.182;2022-09-21T07:28:04;12.50;87.20
20066;DHT22;10193;48.884;9.182;2022-09-21T07:30:31;12.40;87.50
20066;DHT22;10193;48.884;9.182;2022-09-21T07:32:59;12.40;88.00
20066;DHT22;10193;48.884;9.182;2022-09-21T07:35:25;12.40;88.20
20066;DHT22;10193;48.884;9.182;2022-09-21T07:37:52;12.40;88.50
20066;DHT22;10193;48.884;9.182;2022-09-21T07:40:21;12.40;88.70
20066;DHT22;10193;48.884;9.182;2022-09-21T07:42:48;12.40;89.40
20066;DHT22;10193;48.884;9.182;2022-09-21T07:45:15;12.30;89.50
20066;DHT22;10193;48.884;9.182;2022-09-21T07:47:42;12.40;89.70
20066;DHT22;10193;48.884;9.182;2022-09-21T07:50:10;12.40;90.00
20066;DHT22;10193;48.884;9.182;2022-09-21T07:52:37;12.40;89.80
20066;DHT22;10193;48.884;9.182;2022-09-21T07:55:04;12.40;89.90
20066;DHT22;10193;48.884;9.182;2022-09-21T07:57:31;12.40;90.00
20066;DHT22;10193;48.884;9.182;2022-09-21T08:00:12;12.50;90.20
20066;DHT22;10193;48.884;9.182;2022-09-21T08:02:39;12.50;90.30
20066;DHT22;10193;48.884;9.182;2022-09-21T08:05:06;12.50;90.30
20066;DHT22;10193;48.884;9.182;2022-09-21T08:07:34;12.50;90.40
20066;DHT22;10193;48.884;9.182;2022-09-21T08:10:01;12.50;90.40
20066;DHT22;10193;48.884;9.182;2022-09-21T08:12:28;12.60;90.60
20066;DHT22;10193;48.884;9.182;2022-09-21T08:14:55;12.60;90.70
20066;DHT22;10193;48.884;9.182;2022-09-21T08:17:22;12.70;90.80
20066;DHT22;10193;48.884;9.182;2022-09-21T08:19:49;12.70;90.80
20066;DHT22;10193;48.884;9.182;2022-09-21T08:22:16;12.80;91.00
20066;DHT22;10193;48.884;9.182;2022-09-21T08:24:44;12.80;91.10
20066;DHT22;10193;48.884;9.182;2022-09-21T08:27:12;12.80;90.90
20066;DHT22;10193;48.884;9.182;2022-09-21T08:29:39;12.90;91.10
20066;DHT22;10193;48.884;9.182;2022-09-21T08:32:07;12.90;91.00
20066;DHT22;10193;48.884;9.182;2022-09-21T08:34:34;13.00;91.00
20066;DHT22;10193;48.884;9.182;2022-09-21T08:37:01;13.00;91.00
20066;DHT22;10193;48.884;9.182;2022-09-21T08:39:28;13.10;91.10
20066;DHT22;10193;48.884;9.182;2022-09-21T08:42:10;13.10;91.20
20066;DHT22;10193;48.884;9.182;2022-09-21T08:44:41;13.20;90.70
20066;DHT22;10193;48.884;9.182;2022-09-21T08:47:11;13.20;91.20
20066;DHT22;10193;48.884;9.182;2022-09-21T08:49:40;13.30;91.30
20066;DHT22;10193;48.884;9.182;2022-09-21T08:52:11;13.40;91.50
20066;DHT22;10193;48.884;9.182;2022-09-21T08:54:43;13.40;91.30
20066;DHT22;10193;48.884;9.182;2022-09-21T08:57:14;13.50;91.50
20066;DHT22;10193;48.884;9.182;2022-09-21T08:59:43;13.60;91.50
20066;DHT22;10193;48.884;9.182;2022-09-21T09:05:24;13.70;90.80
20066;DHT22;10193;48.884;9.182;2022-09-21T09:08:15;13.80;91.00
20066;DHT22;10193;48.884;9.182;2022-09-21T09:10:53;13.80;90.70
20066;DHT22;10193;48.884;9.182;2022-09-21T09:13:37;13.90;91.10
20066;DHT22;10193;48.884;9.182;2022-09-21T09:16:10;14.00;90.90
20066;DHT22;10193;48.884;9.182;2022-09-21T09:18:44;14.10;91.60
20066;DHT22;10193;48.884;9.182;2022-09-21T09:21:16;14.20;91.60
20066;DHT22;10193;48.884;9.182;2022-09-21T09:23:48;14.30;91.60
20066;DHT22;10193;48.884;9.182;2022-09-21T09:26:19;14.30;91.50
20066;DHT22;10193;48.884;9.182;2022-09-21T09:28:53;14.40;91.60
20066;DHT22;10193;48.884;9.182;2022-09-21T09:31:24;14.50;91.20
20066;DHT22;10193;48.884;9.182;2022-09-21T09:33:54;14.60;91.40
20066;DHT22;10193;48.884;9.182;2022-09-21T09:36:24;14.60;91.30
20066;DHT22;10193;48.884;9.182;2022-09-21T09:38:55;14.70;91.10
20066;DHT22;10193;48.884;9.182;2022-09-21T09:44:32;14.80;90.10
20066;DHT22;10193;48.884;9.182;2022-09-21T09:47:08;14.90;90.70
20066;DHT22;10193;48.884;9.182;2022-09-21T09:49:51;14.90;91.00
20066;DHT22;10193;48.884;9.182;2022-09-21T09:52:21;15.10;90.70
20066;DHT22;10193;48.884;9.182;2022-09-21T09:54:48;15.10;91.40
20066;DHT22;10193;48.884;9.182;2022-09-21T09:57:19;15.20;91.30
20066;DHT22;10193;48.884;9.182;2022-09-21T09:59:54;15.20;90.70
20066;DHT22;10193;48.884;9.182;2022-09-21T10:02:23;15.30;90.90
20066;DHT22;10193;48.884;9.182;2022-09-21T10:04:55;15.40;91.20
20066;DHT22;10193;48.884;9.182;2022-09-21T10:07:39;15.50;90.60
20066;DHT22;10193;48.884;9.182;2022-09-21T10:10:34;15.50;90.00
20066;DHT22;10193;48.884;9.182;2022-09-21T10:13:24;15.60;89.10
20066;DHT22;10193;48.884;9.182;2022-09-21T10:15:55;15.70;89.40
20066;DHT22;10193;48.884;9.182;2022-09-21T10:18:25;15.80;91.30
20066;DHT22;10193;48.884;9.182;2022-09-21T10:20:57;15.80;91.30
20066;DHT22;10193;48.884;9.182;2022-09-21T10:23:26;15.90;90.90
20066;DHT22;10193;48.884;9.182;2022-09-21T10:25:56;16.00;91.50
20066;DHT22;10193;48.884;9.182;2022-09-21T10:28:24;16.10;91.70
20066;DHT22;10193;48.884;9.182;2022-09-21T10:31:07;16.20;91.60
20066;DHT22;10193;48.884;9.182;2022-09-21T10:33:45;16.30;90.00
20066;DHT22;10193;48.884;9.182;2022-09-21T10:36:25;16.40;90.50
20066;DHT22;10193;48.884;9.182;2022-09-21T10:38:52;16.50;90.10
20066;DHT22;10193;48.884;9.182;2022-09-21T10:41:19;16.70;91.70
20066;DHT22;10193;48.884;9.182;2022-09-21T10:43:47;16.70;91.70
20066;DHT22;10193;48.884;9.182;2022-09-21T10:46:16;16.80;91.80
20066;DHT22;10193;48.884;9.182;2022-09-21T10:48:57;16.90;91.70
20066;DHT22;10193;48.884;9.182;2022-09-21T10:51:27;17.00;91.50
20066;DHT22;10193;48.884;9.182;2022-09-21T10:53:54;17.10;90.90
20066;DHT22;10193;48.884;9.182;2022-09-21T10:56:22;17.30;91.10
20066;DHT22;10193;48.884;9.182;2022-09-21T10:59:12;17.30;90.90
20066;DHT22;10193;48.884;9.182;2022-09-21T11:01:48;17.40;88.60
20066;DHT22;10193;48.884;9.182;2022-09-21T11:04:21;17.50;90.50
20066;DHT22;10193;48.884;9.182;2022-09-21T11:06:53;17.60;90.00
20066;DHT22;10193;48.884;9.182;2022-09-21T11:09:24;17.70;90.00
20066;DHT22;10193;48.884;9.182;2022-09-21T11:11:56;17.80;90.00
20066;DHT22;10193;48.884;9.182;2022-09-21T11:14:34;17.80;89.00
20066;DHT22;10193;48.884;9.182;2022-09-21T11:17:09;17.90;87.40
20066;DHT22;10193;48.884;9.182;2022-09-21T11:19:41;18.00;87.40
20066;DHT22;10193;48.884;9.182;2022-09-21T11:22:13;17.90;87.10
20066;DHT22;10193;48.884;9.182;2022-09-21T11:24:48;18.00;86.90
20066;DHT22;10193;48.884;9.182;2022-09-21T11:27:20;18.00;85.80
20066;DHT22;10193;48.884;9.182;2022-09-21T11:29:56;18.00;86.60
20066;DHT22;10193;48.884;9.182;2022-09-21T11:32:36;18.00;84.80
20066;DHT22;10193;48.884;9.182;2022-09-21T11:35:21;18.00;83.30
20066;DHT22;10193;48.884;9.182;2022-09-21T11:38:03;18.00;82.70
20066;DHT22;10193;48.884;9.182;2022-09-21T11:43:44;18.00;82.90
20066;DHT22;10193;48.884;9.182;2022-09-21T11:46:21;18.00;83.10
20066;DHT22;10193;48.884;9.182;2022-09-21T11:49:07;18.00;83.40
20066;DHT22;10193;48.884;9.182;2022-09-21T11:51:49;18.10;82.50
20066;DHT22;10193;48.884;9.182;2022-09-21T11:54:49;18.10;83.70
20066;DHT22;10193;48.884;9.182;2022-09-21T11:57:21;18.20;81.40
20066;DHT22;10193;48.884;9.182;2022-09-21T12:00:07;18.20;86.00
20066;DHT22;10193;48.884;9.182;2022-09-21T12:03:13;18.30;83.00
20066;DHT22;10193;48.884;9.182;2022-09-21T12:05:52;18.30;83.50
20066;DHT22;10193;48.884;9.182;2022-09-21T12:08:49;18.50;84.90
20066;DHT22;10193;48.884;9.182;2022-09-21T12:11:31;18.50;83.40
20066;DHT22;10193;48.884;9.182;2022-09-21T12:14:03;18.60;83.20
20066;DHT22;10193;48.884;9.182;2022-09-21T12:16:39;18.60;83.80
20066;DHT22;10193;48.884;9.182;2022-09-21T12:19:13;18.70;83.30
20066;DHT22;10193;48.884;9.182;2022-09-21T12:21:47;18.80;83.10
20066;DHT22;10193;48.884;9.182;2022-09-21T12:24:17;18.80;82.60
20066;DHT22;10193;48.884;9.182;2022-09-21T12:26:49;18.90;83.50
20066;DHT22;10193;48.884;9.182;2022-09-21T12:29:21;18.90;82.30
20066;DHT22;10193;48.884;9.182;2022-09-21T12:31:56;18.90;82.10
20066;DHT22;10193;48.884;9.182;2022-09-21T12:34:26;18.90;80.50
20066;DHT22;10193;48.884;9.182;2022-09-21T12:37:05;18.90;80.70
20066;DHT22;10193;48.884;9.182;2022-09-21T12:39:39;18.90;78.30
20066;DHT22;10193;48.884;9.182;2022-09-21T12:42:16;18.90;79.40
20066;DHT22;10193;48.884;9.182;2022-09-21T12:44:51;18.90;78.80
20066;DHT22;10193;48.884;9.182;2022-09-21T12:47:20;18.80;79.30
20066;DHT22;10193;48.884;9.182;2022-09-21T12:49:50;18.80;79.60
20066;DHT22;10193;48.884;9.182;2022-09-21T12:52:23;18.80;79.60
20066;DHT22;10193;48.884;9.182;2022-09-21T12:54:56;18.80;79.10
20066;DHT22;10193;48.884;9.182;2022-09-21T12:57:32;18.80;78.40
20066;DHT22;10193;48.884;9.182;2022-09-21T13:00:04;18.70;78.00
20066;DHT22;10193;48.884;9.182;2022-09-21T13:02:38;18.70;78.60
20066;DHT22;10193;48.884;9.182;2022-09-21T13:05:12;18.70;78.60
20066;DHT22;10193;48.884;9.182;2022-09-21T13:08:03;18.70;77.30
20066;DHT22;10193;48.884;9.182;2022-09-21T13:10:45;18.70;76.90
20066;DHT22;10193;48.884;9.182;2022-09-21T13:13:24;18.70;78.10
20066;DHT22;10193;48.884;9.182;2022-09-21T13:15:52;18.80;79.20
20066;DHT22;10193;48.884;9.182;2022-09-21T13:18:22;18.80;79.70
20066;DHT22;10193;48.884;9.182;2022-09-21T13:20:50;18.90;78.70
20066;DHT22;10193;48.884;9.182;2022-09-21T13:23:25;18.90;79.00
20066;DHT22;10193;48.884;9.182;2022-09-21T13:26:02;18.90;77.20
20066;DHT22;10193;48.884;9.182;2022-09-21T13:28:42;19.00;76.20
20066;DHT22;10193;48.884;9.182;2022-09-21T13:31:29;19.00;75.50
20066;DHT22;10193;48.884;9.182;2022-09-21T13:34:25;19.00;77.40
20066;DHT22;10193;48.884;9.182;2022-09-21T13:37:12;19.00;75.10
20066;DHT22;10193;48.884;9.182;2022-09-21T13:39:44;19.00;74.00
20066;DHT22;10193;48.884;9.182;2022-09-21T13:42:42;19.10;76.50
20066;DHT22;10193;48.884;9.182;2022-09-21T13:45:47;19.10;74.60
20066;DHT22;10193;48.884;9.182;2022-09-21T13:48:19;19.00;74.10
20066;DHT22;10193;48.884;9.182;2022-09-21T13:50:49;19.10;76.60
20066;DHT22;10193;48.884;9.182;2022-09-21T13:53:18;19.10;77.40
20066;DHT22;10193;48.884;9.182;2022-09-21T13:55:50;19.10;77.10
20066;DHT22;10193;48.884;9.182;2022-09-21T13:58:20;19.20;77.30
20066;DHT22;10193;48.884;9.182;2022-09-21T14:00:52;19.20;77.20
20066;DHT22;10193;48.884;9.182;2022-09-21T14:03:23;19.20;77.30
20066;DHT22;10193;48.884;9.182;2022-09-21T14:05:52;19.30;77.00
20066;DHT22;10193;48.884;9.182;2022-09-21T14:08:25;19.30;76.80
20066;DHT22;10193;48.884;9.182;2022-09-21T14:10:59;19.30;76.30
20066;DHT22;10193;48.884;9.182;2022-09-21T14:13:31;19.30;75.00
20066;DHT22;10193;48.884;9.182;2022-09-21T14:16:24;19.30;74.80
20066;DHT22;10193;48.884;9.182;2022-09-21T14:18:50;19.30;72.30
20066;DHT22;10193;48.884;9.182;2022-09-21T14:21:18;19.30;74.70
20066;DHT22;10193;48.884;9.182;2022-09-21T14:24:08;19.20;74.20
20066;DHT22;10193;48.884;9.182;2022-09-21T14:26:48;19.20;71.50
20066;DHT22;10193;48.884;9.182;2022-09-21T14:29:20;19.10;71.60
20066;DHT22;10193;48.884;9.182;2022-09-21T14:31:52;19.10;74.00
20066;DHT22;10193;48.884;9.182;2022-09-21T14:34:23;19.10;73.30
20066;DHT22;10193;48.884;9.182;2022-09-21T14:36:54;19.10;73.40
20066;DHT22;10193;48.884;9.182;2022-09-21T14:39:25;19.10;73.40
20066;DHT22;10193;48.884;9.182;2022-09-21T14:41:59;19.00;73.40
20066;DHT22;10193;48.884;9.182;2022-09-21T14:44:28;19.00;72.90
20066;DHT22;10193;48.884;9.182;2022-09-21T14:50:17;19.00;71.30
20066;DHT22;10193;48.884;9.182;2022-09-21T14:53:09;18.90;71.80
20066;DHT22;10193;48.884;9.182;2022-09-21T14:55:59;19.00;70.90
20066;DHT22;10193;48.884;9.182;2022-09-21T14:58:37;18.90;71.70
20066;DHT22;10193;48.884;9.182;2022-09-21T15:01:20;18.90;71.60
20066;DHT22;10193;48.884;9.182;2022-09-21T15:04:19;18.90;71.00
20066;DHT22;10193;48.884;9.182;2022-09-21T15:07:01;18.90;69.50
20066;DHT22;10193;48.884;9.182;2022-09-21T15:10:19;18.80;71.60
20066;DHT22;10193;48.884;9.182;2022-09-21T15:13:14;18.80;70.80
20066;DHT22;10193;48.884;9.182;2022-09-21T15:15:57;18.80;71.80
20066;DHT22;10193;48.884;9.182;2022-09-21T15:18:25;18.80;71.80
20066;DHT22;10193;48.884;9.182;2022-09-21T15:20:56;18.80;73.10
20066;DHT22;10193;48.884;9.182;2022-09-21T15:23:26;18.80;72.20
20066;DHT22;10193;48.884;9.182;2022-09-21T15:25:56;18.80;72.70
20066;DHT22;10193;48.884;9.182;2022-09-21T15:28:25;18.70;72.10
20066;DHT22;10193;48.884;9.182;2022-09-21T15:30:57;18.70;72.30
20066;DHT22;10193;48.884;9.182;2022-09-21T15:33:24;18.70;71.60
20066;DHT22;10193;48.884;9.182;2022-09-21T15:35:51;18.70;71.90
20066;DHT22;10193;48.884;9.182;2022-09-21T15:38:29;18.70;71.70
20066;DHT22;10193;48.884;9.182;2022-09-21T15:40:56;18.70;70.10
20066;DHT22;10193;48.884;9.182;2022-09-21T15:43:23;18.70;71.60
20066;DHT22;10193;48.884;9.182;2022-09-21T15:45:51;18.70;71.70
20066;DHT22;10193;48.884;9.182;2022-09-21T15:48:21;18.70;71.70
20066;DHT22;10193;48.884;9.182;2022-09-21T15:50:52;18.70;71.80
20066;DHT22;10193;48.884;9.182;2022-09-21T15:53:25;18.60;71.20
20066;DHT22;10193;48.884;9.182;2022-09-21T15:55:52;18.60;71.40
20066;DHT22;10193;48.884;9.182;2022-09-21T15:58:28;18.60;71.50
20066;DHT22;10193;48.884;9.182;2022-09-21T16:00:59;18.60;70.60
20066;DHT22;10193;48.884;9.182;2022-09-21T16:03:28;18.60;71.60
20066;DHT22;10193;48.884;9.182;2022-09-21T16:05:55;18.50;71.20
20066;DHT22;10193;48.884;9.182;2022-09-21T16:08:30;18.50;71.20
20066;DHT22;10193;48.884;9.182;2022-09-21T16:11:13;18.50;70.40
20066;DHT22;10193;48.884;9.182;2022-09-21T16:13:41;18.50;68.90
20066;DHT22;10193;48.884;9.182;2022-09-21T16:16:25;18.50;71.50
20066;DHT22;10193;48.884;9.182;2022-09-21T16:18:54;18.40;71.50